createdAt,value
2019-04-10T00:01:34.162Z,0.80
2019-04-10T00:04:04.764Z,0.90
2019-04-10T00:06:34.110Z,0.70
2019-04-10T00:09:04.750Z,0.80
2019-04-10T00:11:34.573Z,0.70
2019-04-10T00:14:03.762Z,0.90
2019-04-10T00:16:33.118Z,0.80
2019-04-10T00:19:02.681Z,0.77
2019-04-10T00:21:31.996Z,1.00
2019-04-10T00:24:01.811Z,1.00
2019-04-10T00:26:31.968Z,1.20
2019-04-10T00:29:01.219Z,0.90
2019-04-10T00:31:30.462Z,1.10
2019-04-10T00:33:59.507Z,0.70
2019-04-10T00:36:28.935Z,0.83
2019-04-10T00:38:58.056Z,0.60
2019-04-10T00:41:27.974Z,0.80
2019-04-10T00:43:57.519Z,1.17
2019-04-10T00:46:26.743Z,0.90
2019-04-10T00:48:56.476Z,0.73
2019-04-10T00:51:25.711Z,0.70
2019-04-10T00:53:54.908Z,0.80
2019-04-10T00:56:24.293Z,0.80
2019-04-10T00:58:53.362Z,0.70
2019-04-10T01:01:23.626Z,0.70
2019-04-10T01:03:53.898Z,0.90
2019-04-10T01:06:24.084Z,0.80
2019-04-10T01:08:53.264Z,0.90
2019-04-10T01:11:23.173Z,0.77
2019-04-10T01:13:53.610Z,0.50
2019-04-10T01:16:23.152Z,0.77
2019-04-10T01:18:53.249Z,0.60
2019-04-10T01:21:23.179Z,0.60
2019-04-10T01:23:53.252Z,0.90
2019-04-10T01:26:23.253Z,0.77
2019-04-10T01:28:54.015Z,0.80
2019-04-10T01:31:23.507Z,0.70
2019-04-10T01:33:52.748Z,0.70
2019-04-10T01:36:22.778Z,0.73
2019-04-10T01:38:52.104Z,0.50
2019-04-10T01:41:21.223Z,0.90
2019-04-10T01:43:51.078Z,0.60
2019-04-10T01:46:20.530Z,0.80
2019-04-10T01:48:49.606Z,0.80
2019-04-10T01:51:19.208Z,0.67
2019-04-10T01:53:48.299Z,0.80
2019-04-10T01:56:27.098Z,0.67
2019-04-10T01:58:49.555Z,0.70
2019-04-10T02:01:22.016Z,0.50
2019-04-10T02:03:52.006Z,0.80
2019-04-10T02:06:21.559Z,0.60
2019-04-10T02:08:50.644Z,0.87
2019-04-10T02:11:19.772Z,0.47
2019-04-10T02:13:49.709Z,0.80
2019-04-10T02:16:19.075Z,0.60
2019-04-10T02:18:48.271Z,0.80
2019-04-10T02:21:17.946Z,0.47
2019-04-10T02:23:47.011Z,0.57
2019-04-10T02:26:16.885Z,0.50
2019-04-10T02:28:47.012Z,0.60
2019-04-10T02:31:16.292Z,0.53
2019-04-10T02:33:45.465Z,0.77
2019-04-10T02:36:14.591Z,0.40
2019-04-10T02:38:59.257Z,0.57
2019-04-10T02:41:14.925Z,0.90
2019-04-10T02:43:45.320Z,1.00
2019-04-10T02:46:15.569Z,0.93
2019-04-10T02:48:44.804Z,0.63
2019-04-10T02:51:15.136Z,0.93
2019-04-10T02:53:45.970Z,0.67
2019-04-10T02:56:15.991Z,0.73
2019-04-10T02:58:47.039Z,0.70
2019-04-10T03:01:17.457Z,1.00
2019-04-10T03:03:46.995Z,0.93
2019-04-10T03:06:16.249Z,0.70
2019-04-10T03:09:05.927Z,0.50
2019-04-10T03:11:17.467Z,0.67
2019-04-10T03:13:48.965Z,0.90
2019-04-10T03:16:19.460Z,0.70
2019-04-10T03:18:49.328Z,0.90
2019-04-10T03:21:21.240Z,0.70
2019-04-10T03:23:50.651Z,0.70
2019-04-10T03:26:20.040Z,1.30
2019-04-10T03:28:49.386Z,0.90
2019-04-10T03:31:20.095Z,0.80
2019-04-10T03:33:55.907Z,0.80
2019-04-10T03:36:27.425Z,0.80
2019-04-10T03:39:01.455Z,0.73
2019-04-10T03:41:28.198Z,0.90
2019-04-10T03:43:58.445Z,0.60
2019-04-10T03:46:27.747Z,0.90
2019-04-10T03:48:57.734Z,0.70
2019-04-10T03:51:26.811Z,1.10
2019-04-10T03:53:56.379Z,0.70
2019-04-10T03:56:25.616Z,0.53
2019-04-10T03:58:55.776Z,0.60
2019-04-10T04:01:25.187Z,0.63
2019-04-10T04:03:55.187Z,0.90
2019-04-10T04:06:24.435Z,0.57
2019-04-10T04:09:03.247Z,0.73
2019-04-10T04:11:24.183Z,0.63
2019-04-10T04:13:53.296Z,0.73
2019-04-10T04:16:22.700Z,0.87
2019-04-10T04:18:51.793Z,0.70
2019-04-10T04:21:21.710Z,0.80
2019-04-10T04:23:51.104Z,0.77
2019-04-10T04:26:21.250Z,0.50
2019-04-10T04:28:51.536Z,1.07
2019-04-10T04:31:20.826Z,0.60
2019-04-10T04:33:50.058Z,0.70
2019-04-10T04:36:19.082Z,0.43
2019-04-10T04:38:49.120Z,0.67
2019-04-10T04:41:18.219Z,0.70
2019-04-10T04:43:48.714Z,0.80
2019-04-10T04:46:18.397Z,0.70
2019-04-10T04:48:50.420Z,0.80
2019-04-10T04:51:19.812Z,0.60
2019-04-10T04:54:08.726Z,0.77
2019-04-10T04:56:38.007Z,0.60
2019-04-10T04:59:07.998Z,0.80
2019-04-10T05:01:38.370Z,0.80
2019-04-10T05:04:08.936Z,1.00
2019-04-10T05:06:39.477Z,0.70
2019-04-10T05:09:08.734Z,1.23
2019-04-10T05:11:38.503Z,0.80
2019-04-10T05:14:07.687Z,0.90
2019-04-10T05:16:36.733Z,0.80
2019-04-10T05:19:06.034Z,1.10
2019-04-10T05:21:35.263Z,0.93
2019-04-10T05:24:05.287Z,1.20
2019-04-10T05:26:34.521Z,0.80
2019-04-10T05:29:04.652Z,1.00
2019-04-10T05:31:38.987Z,0.80
2019-04-10T05:34:09.292Z,1.07
2019-04-10T05:36:39.979Z,1.00
2019-04-10T05:39:09.171Z,0.80
2019-04-10T05:41:38.271Z,1.30
2019-04-10T05:44:07.491Z,1.00
2019-04-10T05:46:36.921Z,0.93
2019-04-10T05:49:06.753Z,0.97
2019-04-10T05:51:35.909Z,1.03
2019-04-10T05:54:05.098Z,1.20
2019-04-10T05:56:34.368Z,1.03
2019-04-10T05:59:03.498Z,1.07
2019-04-10T06:01:37.293Z,0.90
2019-04-10T06:04:03.430Z,1.00
2019-04-10T06:06:35.327Z,0.93
2019-04-10T06:09:08.770Z,0.80
2019-04-10T06:11:39.327Z,0.90
2019-04-10T06:14:10.176Z,0.90
2019-04-10T06:16:40.476Z,0.80
2019-04-10T06:19:11.389Z,1.17
2019-04-10T06:21:40.720Z,1.07
2019-04-10T06:24:09.892Z,0.97
2019-04-10T06:26:39.486Z,0.70
2019-04-10T06:29:08.746Z,1.30
2019-04-10T06:31:38.934Z,0.93
2019-04-10T06:34:08.929Z,1.00
2019-04-10T06:36:38.063Z,1.03
2019-04-10T06:39:10.857Z,1.10
2019-04-10T06:41:44.147Z,0.80
2019-04-10T06:44:15.999Z,0.80
2019-04-10T06:46:46.477Z,1.20
2019-04-10T06:49:16.445Z,1.10
2019-04-10T06:51:45.848Z,1.20
2019-04-10T06:54:16.324Z,1.00
2019-04-10T06:56:52.514Z,0.77
2019-04-10T06:59:23.279Z,1.07
2019-04-10T07:01:56.108Z,1.13
2019-04-10T07:04:25.234Z,1.10
2019-04-10T07:07:02.339Z,0.93
2019-04-10T07:09:27.057Z,1.40
2019-04-10T07:12:01.012Z,1.00
2019-04-10T07:14:28.811Z,1.30
2019-04-10T07:17:04.240Z,1.00
2019-04-10T07:19:30.312Z,1.03
2019-04-10T07:22:01.479Z,1.10
2019-04-10T07:24:34.488Z,1.00
2019-04-10T07:27:03.511Z,0.90
2019-04-10T07:29:32.527Z,1.07
2019-04-10T07:32:04.791Z,1.60
2019-04-10T07:34:38.502Z,1.30
2019-04-10T07:37:17.739Z,1.30
2019-04-10T07:39:46.749Z,1.40
2019-04-10T07:42:26.799Z,1.10
2019-04-10T07:44:47.606Z,1.10
2019-04-10T07:47:22.417Z,1.03
2019-04-10T07:50:14.663Z,1.90
2019-04-10T07:52:45.879Z,1.07
2019-04-10T07:55:16.940Z,1.40
2019-04-10T07:57:48.783Z,1.67
2019-04-10T08:00:18.118Z,1.50
2019-04-10T08:02:49.145Z,1.23
2019-04-10T08:05:18.842Z,1.17
2019-04-10T08:07:48.345Z,1.70
2019-04-10T08:10:18.001Z,2.10
2019-04-10T08:12:50.959Z,1.47
2019-04-10T08:15:18.912Z,1.53
2019-04-10T08:17:50.881Z,2.13
2019-04-10T08:20:21.984Z,2.10
2019-04-10T08:22:51.505Z,1.87
2019-04-10T08:25:26.904Z,2.07
2019-04-10T08:27:56.449Z,2.10
2019-04-10T08:30:25.934Z,2.53
2019-04-10T08:33:00.747Z,2.20
2019-04-10T08:35:26.128Z,1.83
2019-04-10T08:37:55.402Z,2.23
2019-04-10T08:40:24.647Z,2.17
2019-04-10T08:43:13.846Z,2.10
2019-04-10T08:45:48.655Z,2.00
2019-04-10T08:48:15.473Z,2.40
2019-04-10T08:50:46.226Z,2.40
2019-04-10T08:53:15.277Z,2.07
2019-04-10T08:55:44.827Z,2.40
2019-04-10T08:58:14.484Z,1.87
2019-04-10T09:00:45.193Z,2.63
2019-04-10T09:03:14.857Z,2.67
2019-04-10T09:05:44.919Z,2.20
2019-04-10T09:08:19.010Z,2.47
2019-04-10T09:10:51.167Z,2.20
2019-04-10T09:13:20.242Z,2.37
2019-04-10T09:15:49.983Z,2.17
2019-04-10T09:18:19.402Z,2.50
2019-04-10T09:20:49.043Z,2.27
2019-04-10T09:23:28.885Z,2.10
2019-04-10T09:25:51.265Z,2.30
2019-04-10T09:28:22.699Z,1.73
2019-04-10T09:30:57.384Z,3.33
2019-04-10T09:33:32.586Z,2.40
2019-04-10T09:36:02.734Z,2.07
2019-04-10T09:38:32.255Z,2.50
2019-04-10T09:41:01.600Z,2.17
2019-04-10T09:43:31.750Z,2.40
2019-04-10T09:46:08.420Z,2.10
2019-04-10T09:48:40.174Z,2.50
2019-04-10T09:51:09.828Z,2.57
2019-04-10T09:53:39.240Z,2.37
2019-04-10T09:56:09.515Z,1.90
2019-04-10T09:58:38.957Z,2.37
2019-04-10T10:01:13.724Z,2.50
2019-04-10T10:03:48.678Z,1.93
2019-04-10T10:06:27.341Z,2.73
2019-04-10T10:08:50.109Z,2.57
2019-04-10T10:11:20.337Z,2.33
2019-04-10T10:13:50.166Z,2.20
2019-04-10T10:16:20.999Z,2.07
2019-04-10T10:18:50.248Z,2.30
2019-04-10T10:21:28.346Z,2.40
2019-04-10T10:23:58.245Z,2.13
2019-04-10T10:26:28.160Z,1.97
2019-04-10T10:28:58.568Z,2.27
2019-04-10T10:31:30.433Z,2.40
2019-04-10T10:34:01.909Z,2.13
2019-04-10T10:36:40.633Z,2.47
2019-04-10T10:39:09.637Z,2.43
2019-04-10T10:41:34.474Z,2.37
2019-04-10T10:44:04.750Z,1.93
2019-04-10T10:46:34.018Z,1.83
2019-04-10T10:49:04.171Z,2.37
2019-04-10T10:51:39.473Z,1.90
2019-04-10T10:54:16.867Z,2.00
2019-04-10T10:56:46.693Z,1.90
2019-04-10T10:59:17.574Z,1.77
2019-04-10T11:01:48.389Z,1.93
2019-04-10T11:04:19.045Z,2.10
2019-04-10T11:09:19.728Z,1.60
2019-04-10T11:11:49.657Z,2.00
2019-04-10T11:14:19.283Z,1.90
2019-04-10T11:16:49.493Z,1.70
2019-04-10T11:19:19.852Z,1.90
2019-04-10T11:22:03.446Z,1.60
2019-04-10T11:24:35.715Z,2.00
2019-04-10T11:27:06.310Z,1.73
2019-04-10T11:29:37.766Z,2.10
2019-04-10T11:32:09.258Z,1.60
2019-04-10T11:34:40.587Z,1.67
2019-04-10T11:37:23.464Z,1.63
2019-04-10T11:42:37.144Z,2.20
2019-04-10T11:45:10.171Z,1.57
2019-04-10T11:47:39.968Z,1.83
2019-04-10T11:50:14.996Z,1.30
2019-04-10T11:52:52.130Z,1.50
2019-04-10T11:55:21.185Z,1.57
2019-04-10T11:57:51.010Z,1.50
2019-04-10T12:00:33.277Z,1.50
2019-04-10T12:03:04.871Z,1.40
2019-04-10T12:05:37.787Z,1.37
2019-04-10T12:08:32.230Z,1.43
2019-04-10T12:13:15.567Z,1.10
2019-04-10T12:15:52.594Z,3.30
2019-04-10T12:18:31.327Z,1.60
2019-04-10T12:21:02.580Z,1.33
2019-04-10T12:23:32.690Z,1.10
2019-04-10T12:26:21.335Z,1.63
2019-04-10T12:28:50.525Z,1.23
2019-04-10T12:31:19.827Z,1.13
2019-04-10T12:34:08.818Z,1.00
2019-04-10T12:36:38.578Z,1.27
2019-04-10T12:39:09.670Z,1.50
2019-04-10T12:41:39.421Z,1.37
2019-04-10T12:44:09.588Z,1.47
2019-04-10T12:46:39.449Z,1.20
2019-04-10T12:49:09.548Z,1.37
2019-04-10T12:51:38.954Z,1.30
2019-04-10T12:54:10.390Z,1.40
2019-04-10T12:56:40.192Z,1.20
2019-04-10T12:59:10.857Z,1.20
2019-04-10T13:01:44.889Z,1.00
2019-04-10T13:04:14.316Z,1.40
2019-04-10T13:06:44.282Z,1.40
2019-04-10T13:09:16.482Z,1.60
2019-04-10T13:11:46.818Z,1.50
2019-04-10T13:14:16.882Z,1.30
2019-04-10T13:16:46.336Z,1.23
2019-04-10T13:19:18.700Z,1.30
2019-04-10T13:21:48.016Z,1.53
2019-04-10T13:24:17.630Z,1.33
2019-04-10T13:26:46.807Z,1.40
2019-04-10T13:29:16.226Z,1.43
2019-04-10T13:31:46.701Z,1.40
2019-04-10T13:34:15.889Z,1.47
2019-04-10T13:36:46.022Z,1.40
2019-04-10T13:39:17.728Z,1.53
2019-04-10T13:41:46.380Z,1.30
2019-04-10T13:44:16.293Z,1.70
2019-04-10T13:46:45.433Z,1.70
2019-04-10T13:49:14.629Z,1.67
2019-04-10T13:51:44.116Z,1.53
2019-04-10T13:54:15.063Z,1.60
2019-04-10T13:56:45.387Z,1.33
2019-04-10T13:59:15.307Z,1.30
2019-04-10T14:01:44.524Z,1.57
2019-04-10T14:04:14.621Z,1.57
2019-04-10T14:06:44.200Z,1.70
2019-04-10T14:09:31.386Z,1.80
2019-04-10T14:11:49.519Z,1.70
2019-04-10T14:14:18.706Z,1.70
2019-04-10T14:16:48.867Z,1.30
2019-04-10T14:19:18.206Z,1.60
2019-04-10T14:21:47.435Z,1.40
2019-04-10T14:24:17.928Z,1.50
2019-04-10T14:26:56.633Z,1.50
2019-04-10T14:29:27.143Z,1.90
2019-04-10T14:32:00.777Z,1.57
2019-04-10T14:34:30.427Z,1.50
2019-04-10T14:37:00.898Z,1.50
2019-04-10T14:39:31.424Z,1.67
2019-04-10T14:42:00.821Z,1.70
2019-04-10T14:44:30.621Z,1.60
2019-04-10T14:47:00.247Z,1.50
2019-04-10T14:49:29.548Z,1.77
2019-04-10T14:51:58.905Z,1.40
2019-04-10T14:54:28.020Z,1.77
2019-04-10T14:56:57.131Z,1.60
2019-04-10T14:59:26.523Z,1.67
2019-04-10T15:01:55.725Z,1.50
2019-04-10T15:04:24.885Z,1.20
2019-04-10T15:06:55.506Z,1.50
2019-04-10T15:09:26.060Z,1.60
2019-04-10T15:11:55.354Z,1.37
2019-04-10T15:14:25.768Z,1.30
2019-04-10T15:16:59.956Z,1.63
2019-04-10T15:19:26.871Z,2.07
2019-04-10T15:21:56.510Z,1.60
2019-04-10T15:24:25.858Z,1.60
2019-04-10T15:26:55.653Z,1.67
2019-04-10T15:29:25.032Z,1.40
2019-04-10T15:31:54.439Z,1.70
2019-04-10T15:34:24.031Z,2.03
2019-04-10T15:36:56.356Z,1.57
2019-04-10T15:39:33.995Z,1.43
2019-04-10T15:41:57.434Z,1.60
2019-04-10T15:44:26.883Z,1.97
2019-04-10T15:47:07.263Z,1.50
2019-04-10T15:49:27.386Z,1.33
2019-04-10T15:51:57.275Z,1.20
2019-04-10T15:54:26.966Z,1.53
2019-04-10T15:56:56.432Z,1.40
2019-04-10T15:59:25.691Z,1.70
2019-04-10T16:01:55.196Z,1.50
2019-04-10T16:04:25.435Z,1.60
2019-04-10T16:06:55.977Z,1.80
2019-04-10T16:09:25.745Z,1.80
2019-04-10T16:12:03.409Z,1.40
2019-04-10T16:14:40.055Z,1.40
2019-04-10T16:17:31.708Z,1.43
2019-04-10T16:20:19.664Z,1.90
2019-04-10T16:23:08.111Z,1.10
2019-04-10T16:25:38.120Z,1.20
2019-04-10T16:28:08.270Z,1.50
2019-04-10T16:30:38.804Z,1.60
2019-04-10T16:33:09.595Z,1.47
2019-04-10T16:35:39.950Z,1.57
2019-04-10T16:38:09.989Z,1.23
2019-04-10T16:40:43.829Z,1.50
2019-04-10T16:43:13.935Z,1.60
2019-04-10T16:45:43.556Z,2.00
2019-04-10T16:48:12.864Z,1.80
2019-04-10T16:50:42.261Z,1.70
2019-04-10T16:53:11.836Z,1.60
2019-04-10T16:55:41.141Z,1.40
2019-04-10T16:58:11.577Z,1.27
2019-04-10T17:00:41.821Z,1.33
2019-04-10T17:03:11.556Z,1.30
2019-04-10T17:05:41.875Z,1.53
2019-04-10T17:08:11.927Z,1.27
2019-04-10T17:10:42.749Z,1.40
2019-04-10T17:13:12.030Z,1.40
2019-04-10T17:15:44.001Z,1.60
2019-04-10T17:18:13.430Z,1.63
2019-04-10T17:20:42.638Z,1.47
2019-04-10T17:23:12.273Z,1.20
2019-04-10T17:25:42.942Z,1.67
2019-04-10T17:28:12.447Z,1.30
2019-04-10T17:30:42.240Z,1.33
2019-04-10T17:33:13.031Z,1.30
2019-04-10T17:35:43.459Z,1.20
2019-04-10T17:38:14.255Z,1.50
2019-04-10T17:40:48.736Z,1.37
2019-04-10T17:43:14.592Z,1.37
2019-04-10T17:45:44.878Z,1.67
2019-04-10T17:48:14.161Z,1.40
2019-04-10T17:50:43.706Z,2.00
2019-04-10T17:53:14.871Z,1.60
2019-04-10T17:55:44.487Z,1.67
2019-04-10T17:58:14.167Z,1.37
2019-04-10T18:00:45.588Z,1.87
2019-04-10T18:03:17.679Z,1.57
2019-04-10T18:05:46.816Z,1.20
2019-04-10T18:08:16.666Z,1.33
2019-04-10T18:10:49.897Z,1.63
2019-04-10T18:13:18.261Z,1.60
2019-04-10T18:15:48.385Z,1.07
2019-04-10T18:18:19.913Z,1.37
2019-04-10T18:20:49.947Z,1.73
2019-04-10T18:23:20.393Z,1.63
2019-04-10T18:25:49.923Z,4.43
2019-04-10T18:28:19.311Z,1.40
2019-04-10T18:30:49.242Z,1.50
2019-04-10T18:33:18.815Z,1.30
2019-04-10T18:35:49.013Z,1.87
2019-04-10T18:38:19.456Z,1.60
2019-04-10T18:40:58.231Z,1.98
2019-04-10T18:43:20.287Z,2.13
2019-04-10T18:46:03.031Z,1.70
2019-04-10T18:48:20.814Z,2.03
2019-04-10T18:50:50.187Z,2.17
2019-04-10T18:53:19.339Z,2.27
2019-04-10T18:55:48.938Z,2.10
2019-04-10T18:58:21.253Z,2.23
2019-04-10T19:01:25.129Z,2.27
2019-04-10T19:04:10.145Z,2.40
2019-04-10T19:06:51.254Z,2.27
2019-04-10T19:09:26.071Z,2.60
2019-04-10T19:11:51.216Z,2.80
2019-04-10T19:14:20.756Z,2.30
2019-04-10T19:16:49.948Z,1.93
2019-04-10T19:19:19.083Z,2.10
2019-04-10T19:21:48.516Z,2.30
2019-04-10T19:24:18.130Z,2.30
2019-04-10T19:26:47.453Z,1.73
2019-04-10T19:29:17.119Z,2.50
2019-04-10T19:31:50.188Z,2.53
2019-04-10T19:34:19.343Z,2.13
2019-04-10T19:36:48.511Z,2.67
2019-04-10T19:39:20.213Z,2.67
2019-04-10T19:41:49.605Z,2.40
2019-04-10T19:44:19.121Z,2.57
2019-04-10T19:46:48.199Z,2.67
2019-04-10T19:49:17.370Z,2.90
2019-04-10T19:51:48.667Z,2.63
2019-04-10T19:54:18.386Z,2.03
2019-04-10T19:56:48.815Z,2.57
2019-04-10T19:59:18.785Z,2.20
2019-04-10T20:01:48.526Z,1.83
2019-04-10T20:04:21.871Z,2.50
2019-04-10T20:06:52.224Z,2.30
2019-04-10T20:09:22.188Z,2.33
2019-04-10T20:11:54.263Z,2.23
2019-04-10T20:14:22.520Z,2.20
2019-04-10T20:16:51.904Z,2.60
2019-04-10T20:19:22.341Z,2.13
2019-04-10T20:21:52.449Z,2.73
2019-04-10T20:24:22.814Z,2.27
2019-04-10T20:26:52.100Z,2.30
2019-04-10T20:29:24.090Z,3.00
2019-04-10T20:31:55.348Z,2.80
2019-04-10T20:34:24.754Z,2.53
2019-04-10T20:36:53.764Z,2.80
2019-04-10T20:39:25.281Z,2.57
2019-04-10T20:41:56.910Z,2.47
2019-04-10T20:44:26.892Z,2.77
2019-04-10T20:46:58.328Z,2.20
2019-04-10T20:49:28.069Z,2.13
2019-04-10T20:51:57.899Z,2.27
2019-04-10T20:54:27.117Z,2.10
2019-04-10T20:56:57.057Z,1.97
2019-04-10T20:59:26.551Z,2.30
2019-04-10T21:01:55.902Z,2.47
2019-04-10T21:04:25.668Z,2.40
2019-04-10T21:06:54.870Z,2.47
2019-04-10T21:09:24.036Z,2.00
2019-04-10T21:12:02.031Z,2.47
2019-04-10T21:14:31.757Z,2.73
2019-04-10T21:17:02.320Z,3.13
2019-04-10T21:19:35.487Z,2.87
2019-04-10T21:22:05.792Z,2.10
2019-04-10T21:24:35.754Z,2.20
2019-04-10T21:27:05.673Z,1.97
2019-04-10T21:30:09.974Z,2.20
2019-04-10T21:32:58.361Z,2.67
2019-04-10T21:35:32.733Z,2.53
2019-04-10T21:38:02.678Z,1.97
2019-04-10T21:40:32.795Z,1.97
2019-04-10T21:43:02.150Z,2.00
2019-04-10T21:45:31.373Z,2.17
2019-04-10T21:48:00.455Z,2.43
2019-04-10T21:50:29.630Z,2.53
2019-04-10T21:52:59.656Z,2.10
2019-04-10T21:55:31.187Z,2.10
2019-04-10T21:58:00.574Z,2.37
2019-04-10T22:00:49.053Z,2.10
2019-04-10T22:03:19.040Z,2.00
2019-04-10T22:05:50.864Z,1.97
2019-04-10T22:08:33.638Z,2.50
2019-04-10T22:11:04.343Z,2.33
2019-04-10T22:13:33.720Z,1.87
2019-04-10T22:16:03.749Z,2.53
2019-04-10T22:18:33.703Z,2.17
2019-04-10T22:21:04.025Z,2.30
2019-04-10T22:23:34.313Z,2.60
2019-04-10T22:26:04.266Z,2.13
2019-04-10T22:28:33.453Z,2.67
2019-04-10T22:31:02.652Z,2.33
2019-04-10T22:33:32.097Z,2.10
2019-04-10T22:36:01.309Z,2.23
2019-04-10T22:38:30.370Z,2.60
2019-04-10T22:40:59.462Z,1.93
2019-04-10T22:43:30.050Z,2.03
2019-04-10T22:46:00.373Z,2.13
2019-04-10T22:48:30.675Z,2.47
2019-04-10T22:51:01.132Z,2.37
2019-04-10T22:53:33.126Z,2.37
2019-04-10T22:56:02.331Z,2.57
2019-04-10T22:58:32.947Z,2.50
2019-04-10T23:01:02.777Z,2.33
2019-04-10T23:03:32.245Z,2.43
2019-04-10T23:06:01.772Z,2.40
2019-04-10T23:08:31.650Z,2.67
2019-04-10T23:11:01.479Z,2.00
2019-04-10T23:13:32.006Z,2.17
2019-04-10T23:16:06.107Z,2.57
2019-04-10T23:18:35.276Z,2.43
2019-04-10T23:21:04.691Z,2.93
2019-04-10T23:23:34.813Z,2.43
2019-04-10T23:26:04.834Z,2.13
2019-04-10T23:28:34.086Z,2.50
2019-04-10T23:31:09.714Z,2.77
2019-04-10T23:33:39.907Z,2.03
2019-04-10T23:36:09.705Z,2.20
2019-04-10T23:38:39.611Z,2.10
2019-04-10T23:41:09.442Z,2.20
2019-04-10T23:43:39.891Z,2.03
2019-04-10T23:46:11.215Z,2.30
2019-04-10T23:48:41.229Z,2.50
2019-04-10T23:51:10.632Z,2.30
2019-04-10T23:53:40.464Z,2.17
2019-04-10T23:56:09.739Z,2.17
2019-04-10T23:58:38.892Z,1.93
